sensor_id;sensor_type;location;lat;lon;timestamp;pressure;altitude;pressure_sealevel;temperature;humidity
47240;BME280;32978;53.586;10.052;2023-02-01T00:00:54;101058.81;;;3.98;100.00
47240;BME280;32978;53.586;10.052;2023-02-01T00:05:57;101068.59;;;4.05;100.00
47240;BME280;32978;53.586;10.052;2023-02-01T00:11:01;101054.53;;;4.03;100.00
47240;BME280;32978;53.586;10.052;2023-02-01T00:16:21;101058.81;;;3.88;100.00
47240;BME280;32978;53.586;10.052;2023-02-01T00:21:19;101051.25;;;3.90;100.00
47240;BME280;32978;53.586;10.052;2023-02-01T00:26:43;101042.28;;;3.90;100.00
47240;BME280;32978;53.586;10.052;2023-02-01T00:31:40;101035.00;;;3.90;100.00
47240;BME280;32978;53.586;10.052;2023-02-01T00:36:36;101027.41;;;3.87;100.00
47240;BME280;32978;53.586;10.052;2023-02-01T00:41:33;101040.44;;;3.95;100.00
47240;BME280;32978;53.586;10.052;2023-02-01T00:46:30;101046.94;;;3.99;100.00
47240;BME280;32978;53.586;10.052;2023-02-01T00:51:28;101037.78;;;4.21;100.00
47240;BME280;32978;53.586;10.052;2023-02-01T00:56:25;101029.41;;;4.22;100.00
47240;BME280;32978;53.586;10.052;2023-02-01T01:01:25;101036.19;;;4.25;100.00
47240;BME280;32978;53.586;10.052;2023-02-01T01:06:29;101042.41;;;4.26;100.00
47240;BME280;32978;53.586;10.052;2023-02-01T01:11:29;101034.53;;;4.29;100.00
47240;BME280;32978;53.586;10.052;2023-02-01T01:16:28;101034.03;;;4.27;100.00
47240;BME280;32978;53.586;10.052;2023-02-01T01:21:25;101029.69;;;4.31;100.00
47240;BME280;32978;53.586;10.052;2023-02-01T01:26:25;101023.19;;;4.27;100.00
47240;BME280;32978;53.586;10.052;2023-02-01T01:31:21;101007.50;;;4.34;100.00
47240;BME280;32978;53.586;10.052;2023-02-01T01:36:18;101011.53;;;4.27;100.00
47240;BME280;32978;53.586;10.052;2023-02-01T01:41:20;100991.25;;;4.29;100.00
47240;BME280;32978;53.586;10.052;2023-02-01T01:46:20;101001.00;;;4.30;100.00
47240;BME280;32978;53.586;10.052;2023-02-01T01:51:20;100984.75;;;4.35;100.00
47240;BME280;32978;53.586;10.052;2023-02-01T01:56:18;100979.88;;;4.37;100.00
47240;BME280;32978;53.586;10.052;2023-02-01T02:01:15;100982.06;;;4.46;100.00
47240;BME280;32978;53.586;10.052;2023-02-01T02:06:17;100975.03;;;4.45;100.00
47240;BME280;32978;53.586;10.052;2023-02-01T02:11:17;100969.06;;;4.42;100.00
47240;BME280;32978;53.586;10.052;2023-02-01T02:37:25;100938.72;;;4.35;100.00
47240;BME280;32978;53.586;10.052;2023-02-01T02:53:38;100924.63;;;4.13;100.00
47240;BME280;32978;53.586;10.052;2023-02-01T02:58:55;100908.94;;;4.05;100.00
47240;BME280;32978;53.586;10.052;2023-02-01T03:04:10;100897.59;;;3.97;100.00
47240;BME280;32978;53.586;10.052;2023-02-01T03:09:18;100893.53;;;4.00;100.00
47240;BME280;32978;53.586;10.052;2023-02-01T03:14:18;100908.94;;;3.89;100.00
47240;BME280;32978;53.586;10.052;2023-02-01T03:24:32;100889.44;;;3.77;100.00
47240;BME280;32978;53.586;10.052;2023-02-01T03:29:36;100902.41;;;3.75;100.00
47240;BME280;32978;53.586;10.052;2023-02-01T03:34:33;100907.28;;;3.78;100.00
47240;BME280;32978;53.586;10.052;2023-02-01T03:44:53;100888.84;;;3.54;100.00
47240;BME280;32978;53.586;10.052;2023-02-01T03:49:58;100889.94;;;3.53;100.00
47240;BME280;32978;53.586;10.052;2023-02-01T03:54:56;100885.03;;;3.50;100.00
47240;BME280;32978;53.586;10.052;2023-02-01T03:59:53;100879.63;;;3.50;100.00
47240;BME280;32978;53.586;10.052;2023-02-01T04:04:49;100859.09;;;3.49;100.00
47240;BME280;32978;53.586;10.052;2023-02-01T04:09:46;100869.34;;;3.47;100.00
47240;BME280;32978;53.586;10.052;2023-02-01T04:14:42;100856.38;;;3.44;100.00
47240;BME280;32978;53.586;10.052;2023-02-01T04:19:39;100859.09;;;3.44;100.00
47240;BME280;32978;53.586;10.052;2023-02-01T04:24:35;100856.94;;;3.51;100.00
47240;BME280;32978;53.586;10.052;2023-02-01T04:29:33;100854.50;;;3.50;100.00
47240;BME280;32978;53.586;10.052;2023-02-01T04:34:29;100829.06;;;3.46;100.00
47240;BME280;32978;53.586;10.052;2023-02-01T04:39:26;100830.97;;;3.45;100.00
47240;BME280;32978;53.586;10.052;2023-02-01T04:44:22;100840.72;;;3.46;100.00
47240;BME280;32978;53.586;10.052;2023-02-01T04:49:19;100845.03;;;3.42;100.00
47240;BME280;32978;53.586;10.052;2023-02-01T04:54:17;100815.53;;;3.30;100.00
47240;BME280;32978;53.586;10.052;2023-02-01T04:59:14;100829.31;;;3.29;100.00
47240;BME280;32978;53.586;10.052;2023-02-01T05:04:11;100830.66;;;3.26;100.00
47240;BME280;32978;53.586;10.052;2023-02-01T05:09:07;100838.19;;;3.14;100.00
47240;BME280;32978;53.586;10.052;2023-02-01T05:14:04;100849.78;;;3.09;100.00
47240;BME280;32978;53.586;10.052;2023-02-01T05:19:00;100861.50;;;2.72;100.00
47240;BME280;32978;53.586;10.052;2023-02-01T05:23:57;100851.09;;;2.49;100.00
47240;BME280;32978;53.586;10.052;2023-02-01T05:29:31;100835.84;;;2.27;100.00
47240;BME280;32978;53.586;10.052;2023-02-01T05:34:28;100793.69;;;2.16;100.00
47240;BME280;32978;53.586;10.052;2023-02-01T05:39:24;100815.84;;;2.18;100.00
47240;BME280;32978;53.586;10.052;2023-02-01T05:44:21;100836.78;;;2.11;100.00
47240;BME280;32978;53.586;10.052;2023-02-01T05:49:17;100837.66;;;2.17;100.00
47240;BME280;32978;53.586;10.052;2023-02-01T05:54:15;100846.53;;;2.12;100.00
47240;BME280;32978;53.586;10.052;2023-02-01T05:59:11;100870.72;;;2.02;100.00
47240;BME280;32978;53.586;10.052;2023-02-01T06:04:08;100846.41;;;1.97;100.00
47240;BME280;32978;53.586;10.052;2023-02-01T06:09:04;100836.69;;;1.96;100.00
47240;BME280;32978;53.586;10.052;2023-02-01T06:14:01;100840.44;;;1.95;100.00
47240;BME280;32978;53.586;10.052;2023-02-01T06:18:58;100829.72;;;2.00;100.00
47240;BME280;32978;53.586;10.052;2023-02-01T06:23:54;100828.69;;;2.06;100.00
47240;BME280;32978;53.586;10.052;2023-02-01T06:28:52;100820.38;;;2.13;100.00
47240;BME280;32978;53.586;10.052;2023-02-01T06:33:48;100816.91;;;2.22;100.00
47240;BME280;32978;53.586;10.052;2023-02-01T06:38:45;100812.94;;;2.30;100.00
47240;BME280;32978;53.586;10.052;2023-02-01T06:43:42;100830.00;;;2.41;100.00
47240;BME280;32978;53.586;10.052;2023-02-01T06:48:39;100826.00;;;2.48;100.00
47240;BME280;32978;53.586;10.052;2023-02-01T06:53:36;100816.06;;;2.59;100.00
47240;BME280;32978;53.586;10.052;2023-02-01T06:58:33;100816.09;;;2.64;100.00
47240;BME280;32978;53.586;10.052;2023-02-01T07:03:30;100822.34;;;2.70;100.00
47240;BME280;32978;53.586;10.052;2023-02-01T07:08:27;100826.72;;;2.81;100.00
47240;BME280;32978;53.586;10.052;2023-02-01T07:13:24;100836.75;;;2.91;100.00
47240;BME280;32978;53.586;10.052;2023-02-01T07:18:20;100848.13;;;2.98;100.00
47240;BME280;32978;53.586;10.052;2023-02-01T07:23:17;100828.69;;;3.01;100.00
47240;BME280;32978;53.586;10.052;2023-02-01T07:28:13;100828.41;;;3.03;100.00
47240;BME280;32978;53.586;10.052;2023-02-01T07:33:10;100813.09;;;3.24;100.00
47240;BME280;32978;53.586;10.052;2023-02-01T07:38:06;100815.28;;;3.37;100.00
47240;BME280;32978;53.586;10.052;2023-02-01T07:43:03;100818.47;;;3.19;100.00
47240;BME280;32978;53.586;10.052;2023-02-01T07:48:02;100836.84;;;3.16;100.00
47240;BME280;32978;53.586;10.052;2023-02-01T07:53:00;100819.59;;;3.23;100.00
47240;BME280;32978;53.586;10.052;2023-02-01T07:57:57;100840.13;;;3.34;100.00
47240;BME280;32978;53.586;10.052;2023-02-01T08:02:57;100843.44;;;3.51;100.00
47240;BME280;32978;53.586;10.052;2023-02-01T08:07:54;100841.28;;;3.64;100.00
47240;BME280;32978;53.586;10.052;2023-02-01T08:12:50;100839.13;;;3.76;100.00
47240;BME280;32978;53.586;10.052;2023-02-01T08:17:49;100853.72;;;3.85;100.00
47240;BME280;32978;53.586;10.052;2023-02-01T08:22:45;100858.63;;;3.88;100.00
47240;BME280;32978;53.586;10.052;2023-02-01T08:27:42;100884.31;;;4.01;100.00
47240;BME280;32978;53.586;10.052;2023-02-01T08:32:38;100859.69;;;4.13;100.00
47240;BME280;32978;53.586;10.052;2023-02-01T08:37:35;100865.66;;;4.30;100.00
47240;BME280;32978;53.586;10.052;2023-02-01T08:42:32;100854.81;;;4.20;100.00
47240;BME280;32978;53.586;10.052;2023-02-01T08:47:47;100857.00;;;4.08;100.00
47240;BME280;32978;53.586;10.052;2023-02-01T08:52:43;100821.84;;;3.92;100.00
47240;BME280;32978;53.586;10.052;2023-02-01T08:57:41;100814.25;;;3.84;100.00
47240;BME280;32978;53.586;10.052;2023-02-01T09:02:37;100820.75;;;3.83;100.00
47240;BME280;32978;53.586;10.052;2023-02-01T09:07:34;100838.63;;;3.99;100.00
47240;BME280;32978;53.586;10.052;2023-02-01T09:12:33;100811.00;;;4.23;100.00
47240;BME280;32978;53.586;10.052;2023-02-01T09:17:30;100819.91;;;4.24;100.00
47240;BME280;32978;53.586;10.052;2023-02-01T09:22:26;100821.81;;;4.23;100.00
47240;BME280;32978;53.586;10.052;2023-02-01T09:27:23;100809.81;;;4.55;100.00
47240;BME280;32978;53.586;10.052;2023-02-01T09:32:20;100820.06;;;4.73;100.00
47240;BME280;32978;53.586;10.052;2023-02-01T09:37:18;100817.34;;;4.78;100.00
47240;BME280;32978;53.586;10.052;2023-02-01T09:47:57;100825.19;;;4.80;100.00
47240;BME280;32978;53.586;10.052;2023-02-01T09:52:59;100812.44;;;4.85;100.00
47240;BME280;32978;53.586;10.052;2023-02-01T09:58:03;100817.84;;;4.91;100.00
47240;BME280;32978;53.586;10.052;2023-02-01T10:03:01;100813.16;;;5.06;100.00
47240;BME280;32978;53.586;10.052;2023-02-01T10:13:54;100814.38;;;5.35;100.00
47240;BME280;32978;53.586;10.052;2023-02-01T10:24:20;100807.31;;;5.34;100.00
47240;BME280;32978;53.586;10.052;2023-02-01T10:29:22;100803.06;;;5.17;100.00
47240;BME280;32978;53.586;10.052;2023-02-01T10:34:24;100802.06;;;5.03;100.00
47240;BME280;32978;53.586;10.052;2023-02-01T10:39:22;100807.88;;;4.76;100.00
47240;BME280;32978;53.586;10.052;2023-02-01T10:44:23;100815.78;;;4.57;100.00
47240;BME280;32978;53.586;10.052;2023-02-01T10:49:36;100798.56;;;4.12;100.00
47240;BME280;32978;53.586;10.052;2023-02-01T10:54:37;100800.97;;;4.24;100.00
47240;BME280;32978;53.586;10.052;2023-02-01T10:59:37;100787.69;;;4.32;100.00
47240;BME280;32978;53.586;10.052;2023-02-01T11:04:34;100792.28;;;4.37;100.00
47240;BME280;32978;53.586;10.052;2023-02-01T11:09:32;100729.78;;;4.23;100.00
47240;BME280;32978;53.586;10.052;2023-02-01T11:14:38;100772.81;;;4.30;100.00
47240;BME280;32978;53.586;10.052;2023-02-01T11:19:35;100745.75;;;4.19;100.00
47240;BME280;32978;53.586;10.052;2023-02-01T11:24:34;100759.53;;;4.33;100.00
47240;BME280;32978;53.586;10.052;2023-02-01T11:29:40;100757.03;;;4.52;100.00
47240;BME280;32978;53.586;10.052;2023-02-01T11:34:42;100735.88;;;4.59;100.00
47240;BME280;32978;53.586;10.052;2023-02-01T11:39:39;100731.28;;;4.65;100.00
47240;BME280;32978;53.586;10.052;2023-02-01T11:44:38;100735.31;;;4.68;100.00
47240;BME280;32978;53.586;10.052;2023-02-01T11:49:35;100694.41;;;4.69;100.00
47240;BME280;32978;53.586;10.052;2023-02-01T12:00:08;100701.72;;;4.74;100.00
47240;BME280;32978;53.586;10.052;2023-02-01T12:05:29;100682.56;;;4.60;100.00
47240;BME280;32978;53.586;10.052;2023-02-01T12:10:40;100674.22;;;4.46;100.00
47240;BME280;32978;53.586;10.052;2023-02-01T12:26:22;100686.81;;;4.11;100.00
47240;BME280;32978;53.586;10.052;2023-02-01T12:41:40;100717.66;;;3.90;100.00
47240;BME280;32978;53.586;10.052;2023-02-01T12:46:59;100723.66;;;3.61;100.00
47240;BME280;32978;53.586;10.052;2023-02-01T12:52:01;100714.47;;;3.52;100.00
47240;BME280;32978;53.586;10.052;2023-02-01T12:57:06;100713.13;;;3.44;100.00
47240;BME280;32978;53.586;10.052;2023-02-01T13:02:28;100703.94;;;3.35;100.00
47240;BME280;32978;53.586;10.052;2023-02-01T13:07:41;100696.38;;;3.37;100.00
47240;BME280;32978;53.586;10.052;2023-02-01T13:18:13;100688.25;;;3.32;100.00
47240;BME280;32978;53.586;10.052;2023-02-01T13:23:28;100681.72;;;3.69;100.00
47240;BME280;32978;53.586;10.052;2023-02-01T13:28:29;100679.28;;;4.63;100.00
47240;BME280;32978;53.586;10.052;2023-02-01T13:33:45;100666.78;;;4.72;100.00
47240;BME280;32978;53.586;10.052;2023-02-01T13:44:31;100666.41;;;4.34;100.00
47240;BME280;32978;53.586;10.052;2023-02-01T13:49:32;100663.59;;;4.60;100.00
47240;BME280;32978;53.586;10.052;2023-02-01T13:54:36;100634.19;;;4.38;100.00
47240;BME280;32978;53.586;10.052;2023-02-01T14:04:49;100650.81;;;4.06;100.00
47240;BME280;32978;53.586;10.052;2023-02-01T14:09:45;100690.94;;;3.16;100.00
47240;BME280;32978;53.586;10.052;2023-02-01T14:14:42;100716.06;;;3.07;100.00
47240;BME280;32978;53.586;10.052;2023-02-01T14:19:38;100706.09;;;3.23;100.00
47240;BME280;32978;53.586;10.052;2023-02-01T14:24:36;100668.25;;;3.53;100.00
47240;BME280;32978;53.586;10.052;2023-02-01T14:29:35;100710.94;;;3.41;100.00
47240;BME280;32978;53.586;10.052;2023-02-01T14:44:41;100766.03;;;3.09;100.00
47240;BME280;32978;53.586;10.052;2023-02-01T14:54:55;100780.66;;;3.29;100.00
47240;BME280;32978;53.586;10.052;2023-02-01T14:59:59;100769.34;;;3.32;100.00
47240;BME280;32978;53.586;10.052;2023-02-01T15:04:56;100769.34;;;3.32;100.00
47240;BME280;32978;53.586;10.052;2023-02-01T15:09:56;100763.38;;;3.30;100.00
47240;BME280;32978;53.586;10.052;2023-02-01T15:20:14;100752.03;;;3.38;100.00
47240;BME280;32978;53.586;10.052;2023-02-01T15:25:22;100778.50;;;3.41;100.00
47240;BME280;32978;53.586;10.052;2023-02-01T15:30:22;100761.22;;;3.37;100.00
47240;BME280;32978;53.586;10.052;2023-02-01T15:35:39;100774.44;;;3.23;100.00
47240;BME280;32978;53.586;10.052;2023-02-01T15:46:03;100797.97;;;3.23;100.00
47240;BME280;32978;53.586;10.052;2023-02-01T15:51:03;100789.06;;;3.27;100.00
47240;BME280;32978;53.586;10.052;2023-02-01T15:56:01;100799.31;;;3.30;100.00
47240;BME280;32978;53.586;10.052;2023-02-01T16:01:02;100800.13;;;3.31;100.00
47240;BME280;32978;53.586;10.052;2023-02-01T16:06:03;100798.78;;;3.33;100.00
47240;BME280;32978;53.586;10.052;2023-02-01T16:11:23;100796.38;;;3.32;100.00
47240;BME280;32978;53.586;10.052;2023-02-01T16:16:21;100789.31;;;3.36;100.00
47240;BME280;32978;53.586;10.052;2023-02-01T16:21:17;100795.28;;;3.38;100.00
47240;BME280;32978;53.586;10.052;2023-02-01T16:26:14;100802.03;;;3.41;100.00
47240;BME280;32978;53.586;10.052;2023-02-01T16:31:17;100811.53;;;3.48;100.00
47240;BME280;32978;53.586;10.052;2023-02-01T16:36:18;100811.25;;;3.50;100.00
47240;BME280;32978;53.586;10.052;2023-02-01T16:41:17;100819.09;;;3.56;100.00
47240;BME280;32978;53.586;10.052;2023-02-01T16:46:16;100817.50;;;3.61;100.00
47240;BME280;32978;53.586;10.052;2023-02-01T16:51:15;100814.78;;;3.61;100.00
47240;BME280;32978;53.586;10.052;2023-02-01T16:56:21;100813.94;;;3.55;100.00
47240;BME280;32978;53.586;10.052;2023-02-01T17:01:18;100823.69;;;3.56;100.00
47240;BME280;32978;53.586;10.052;2023-02-01T17:06:18;100833.16;;;3.69;100.00
47240;BME280;32978;53.586;10.052;2023-02-01T17:11:15;100833.72;;;3.81;100.00
47240;BME280;32978;53.586;10.052;2023-02-01T17:21:14;100823.47;;;3.83;100.00
47240;BME280;32978;53.586;10.052;2023-02-01T17:26:11;100826.16;;;3.98;100.00
47240;BME280;32978;53.586;10.052;2023-02-01T17:31:11;100837.50;;;4.06;100.00
47240;BME280;32978;53.586;10.052;2023-02-01T17:36:14;100839.94;;;4.07;100.00
47240;BME280;32978;53.586;10.052;2023-02-01T17:41:13;100834.28;;;4.14;100.00
47240;BME280;32978;53.586;10.052;2023-02-01T17:46:12;100834.81;;;4.11;100.00
47240;BME280;32978;53.586;10.052;2023-02-01T17:51:15;100834.53;;;4.12;100.00
47240;BME280;32978;53.586;10.052;2023-02-01T17:56:16;100821.00;;;4.22;100.00
47240;BME280;32978;53.586;10.052;2023-02-01T18:01:21;100820.44;;;4.15;100.00
47240;BME280;32978;53.586;10.052;2023-02-01T18:06:21;100823.94;;;4.31;100.00
47240;BME280;32978;53.586;10.052;2023-02-01T18:11:20;100810.41;;;4.31;100.00
47240;BME280;32978;53.586;10.052;2023-02-01T18:16:20;100818.56;;;4.21;100.00
47240;BME280;32978;53.586;10.052;2023-02-01T18:21:20;100810.16;;;4.28;100.00
47240;BME280;32978;53.586;10.052;2023-02-01T18:26:17;100805.03;;;4.26;100.00
47240;BME280;32978;53.586;10.052;2023-02-01T18:31:29;100800.16;;;4.23;100.00
47240;BME280;32978;53.586;10.052;2023-02-01T18:36:27;100811.53;;;4.10;100.00
47240;BME280;32978;53.586;10.052;2023-02-01T18:41:25;100822.34;;;4.10;100.00
47240;BME280;32978;53.586;10.052;2023-02-01T18:46:22;100824.81;;;4.06;100.00
47240;BME280;32978;53.586;10.052;2023-02-01T18:51:19;100821.03;;;4.02;100.00
47240;BME280;32978;53.586;10.052;2023-02-01T18:56:16;100814.22;;;4.15;100.00
47240;BME280;32978;53.586;10.052;2023-02-01T19:01:16;100814.75;;;4.22;100.00
47240;BME280;32978;53.586;10.052;2023-02-01T19:06:14;100812.59;;;4.29;100.00
47240;BME280;32978;53.586;10.052;2023-02-01T19:11:10;100812.03;;;4.37;100.00
47240;BME280;32978;53.586;10.052;2023-02-01T19:16:12;100792.56;;;4.35;100.00
47240;BME280;32978;53.586;10.052;2023-02-01T19:21:11;100797.72;;;4.32;100.00
47240;BME280;32978;53.586;10.052;2023-02-01T19:26:15;100795.25;;;4.40;100.00
47240;BME280;32978;53.586;10.052;2023-02-01T19:31:12;100797.66;;;4.47;100.00
47240;BME280;32978;53.586;10.052;2023-02-01T19:36:09;100828.31;;;4.27;100.00
47240;BME280;32978;53.586;10.052;2023-02-01T19:41:07;100867.03;;;3.97;100.00
47240;BME280;32978;53.586;10.052;2023-02-01T19:46:05;100871.59;;;3.91;100.00
47240;BME280;32978;53.586;10.052;2023-02-01T19:51:01;100868.59;;;3.72;100.00
47240;BME280;32978;53.586;10.052;2023-02-01T19:55:59;100874.81;;;3.57;100.00
47240;BME280;32978;53.586;10.052;2023-02-01T20:00:57;100876.91;;;3.45;100.00
47240;BME280;32978;53.586;10.052;2023-02-01T20:05:57;100868.00;;;3.40;100.00
47240;BME280;32978;53.586;10.052;2023-02-01T20:10:54;100871.75;;;3.33;100.00
47240;BME280;32978;53.586;10.052;2023-02-01T20:15:57;100895.28;;;3.33;100.00
47240;BME280;32978;53.586;10.052;2023-02-01T20:20:58;100909.56;;;3.28;100.00
47240;BME280;32978;53.586;10.052;2023-02-01T20:26:03;100879.03;;;3.23;100.00
47240;BME280;32978;53.586;10.052;2023-02-01T20:31:01;100879.53;;;3.20;100.00
47240;BME280;32978;53.586;10.052;2023-02-01T20:35:58;100871.97;;;3.22;100.00
47240;BME280;32978;53.586;10.052;2023-02-01T20:41:06;100882.31;;;3.35;100.00
47240;BME280;32978;53.586;10.052;2023-02-01T20:46:03;100890.75;;;3.54;100.00
47240;BME280;32978;53.586;10.052;2023-02-01T20:51:00;100868.81;;;3.45;100.00
47240;BME280;32978;53.586;10.052;2023-02-01T20:55:57;100874.25;;;3.61;100.00
47240;BME280;32978;53.586;10.052;2023-02-01T21:00:53;100882.13;;;3.62;100.00
47240;BME280;32978;53.586;10.052;2023-02-01T21:05:52;100883.47;;;3.80;100.00
47240;BME280;32978;53.586;10.052;2023-02-01T21:11:08;100879.72;;;3.91;100.00
47240;BME280;32978;53.586;10.052;2023-02-01T21:16:10;100876.22;;;4.11;100.00
47240;BME280;32978;53.586;10.052;2023-02-01T21:21:08;100890.56;;;4.12;100.00
47240;BME280;32978;53.586;10.052;2023-02-01T21:26:05;100891.91;;;4.40;100.00
47240;BME280;32978;53.586;10.052;2023-02-01T21:31:01;100883.50;;;4.41;100.00
47240;BME280;32978;53.586;10.052;2023-02-01T21:35:58;100920.88;;;4.45;100.00
47240;BME280;32978;53.586;10.052;2023-02-01T21:40:54;100880.78;;;4.57;100.00
47240;BME280;32978;53.586;10.052;2023-02-01T21:46:09;100884.31;;;4.57;100.00
47240;BME280;32978;53.586;10.052;2023-02-01T21:51:06;100905.69;;;4.59;100.00
47240;BME280;32978;53.586;10.052;2023-02-01T21:56:04;100918.69;;;4.52;100.00
47240;BME280;32978;53.586;10.052;2023-02-01T22:01:01;100925.19;;;4.40;100.00
47240;BME280;32978;53.586;10.052;2023-02-01T22:05:58;100904.63;;;4.24;100.00
47240;BME280;32978;53.586;10.052;2023-02-01T22:10:54;100925.75;;;4.32;100.00
47240;BME280;32978;53.586;10.052;2023-02-01T22:15:50;100922.25;;;4.32;100.00
47240;BME280;32978;53.586;10.052;2023-02-01T22:20:47;100937.13;;;4.34;100.00
47240;BME280;32978;53.586;10.052;2023-02-01T22:25:44;100925.47;;;4.34;100.00
47240;BME280;32978;53.586;10.052;2023-02-01T22:30:40;100940.38;;;4.47;100.00
47240;BME280;32978;53.586;10.052;2023-02-01T22:35:36;100933.59;;;4.29;100.00
47240;BME280;32978;53.586;10.052;2023-02-01T22:40:33;100944.41;;;4.24;100.00
47240;BME280;32978;53.586;10.052;2023-02-01T22:45:29;100982.06;;;4.25;100.00
47240;BME280;32978;53.586;10.052;2023-02-01T22:50:26;100973.38;;;4.38;100.00
47240;BME280;32978;53.586;10.052;2023-02-01T22:55:22;100970.69;;;4.28;100.00
47240;BME280;32978;53.586;10.052;2023-02-01T23:00:19;100989.63;;;4.18;100.00
47240;BME280;32978;53.586;10.052;2023-02-01T23:05:20;100999.34;;;4.09;100.00
47240;BME280;32978;53.586;10.052;2023-02-01T23:10:18;101005.56;;;4.19;100.00
47240;BME280;32978;53.586;10.052;2023-02-01T23:15:15;101011.00;;;4.19;100.00
47240;BME280;32978;53.586;10.052;2023-02-01T23:20:15;101014.53;;;4.25;100.00
47240;BME280;32978;53.586;10.052;2023-02-01T23:25:13;101008.06;;;4.41;100.00
47240;BME280;32978;53.586;10.052;2023-02-01T23:30:10;100993.44;;;4.32;100.00
47240;BME280;32978;53.586;10.052;2023-02-01T23:35:07;101008.06;;;4.41;100.00
47240;BME280;32978;53.586;10.052;2023-02-01T23:40:04;101017.81;;;4.53;100.00
47240;BME280;32978;53.586;10.052;2023-02-01T23:45:02;101019.97;;;4.56;100.00
47240;BME280;32978;53.586;10.052;2023-02-01T23:49:59;101025.38;;;4.40;100.00
47240;BME280;32978;53.586;10.052;2023-02-01T23:54:55;101032.13;;;4.33;100.00
47240;BME280;32978;53.586;10.052;2023-02-01T23:59:51;101043.78;;;4.33;100.00
